Allegan, Michigan
Current Conditions -  °F | °C
As of 7:53 AM on Monday 22 Dec 2014 (Local Time) from KBIV Reporting Station
Clear Clear  
Wind Chill: 21°   Ceiling: Unl
Heat Index: 30°   Visibility: 8mi
Dew Point: 23°   Wind: 10mph
Humidity: 75%   Direction: 120°ESE
Pressure: 30.02"   Gusts: NA
Location:  42.53°N, 85.86°W
Report Text: KBIV 221253Z AUTO 12009KT 8SM CLR M01/M05 A3002 RMK AO2 SLP173 T10111050
Loading
Personal Weather Stations






























Interactive Weather Map New forecast layout! Learn more

10-Day Weather Forecast

Advertisements
Track Severe Weather on mobile